createdAt,value
2018-04-26T00:01:04.778Z,8.10
2018-04-26T00:03:32.929Z,8.10
2018-04-26T00:06:01.102Z,8.00
2018-04-26T00:08:29.258Z,8.00
2018-04-26T00:10:57.429Z,8.00
2018-04-26T00:13:25.580Z,8.00
2018-04-26T00:15:53.759Z,8.10
2018-04-26T00:18:21.906Z,8.00
2018-04-26T00:20:50.076Z,8.00
2018-04-26T00:23:18.228Z,7.90
2018-04-26T00:25:46.409Z,7.90
2018-04-26T00:28:15.327Z,7.80
2018-04-26T00:30:43.497Z,7.80
2018-04-26T00:33:11.655Z,7.80
2018-04-26T00:35:39.836Z,7.70
2018-04-26T00:38:08.018Z,7.70
2018-04-26T00:40:36.183Z,7.70
2018-04-26T00:43:04.328Z,7.60
2018-04-26T00:45:32.502Z,7.60
2018-04-26T00:48:01.431Z,7.60
2018-04-26T00:50:29.625Z,7.50
2018-04-26T00:52:57.772Z,7.60
2018-04-26T00:55:25.961Z,7.50
2018-04-26T00:57:54.113Z,7.50
2018-04-26T01:00:22.282Z,7.50
2018-04-26T01:02:50.462Z,7.50
2018-04-26T01:05:18.608Z,7.50
2018-04-26T01:07:47.541Z,7.40
2018-04-26T01:10:15.693Z,7.40
2018-04-26T01:12:43.868Z,7.40
2018-04-26T01:15:12.021Z,7.30
2018-04-26T01:17:40.198Z,7.30
2018-04-26T01:20:09.229Z,7.20
2018-04-26T01:22:37.316Z,7.20
2018-04-26T01:25:05.489Z,7.20
2018-04-26T01:27:33.637Z,7.20
2018-04-26T01:30:01.813Z,7.20
2018-04-26T01:32:29.962Z,7.10
2018-04-26T01:34:58.147Z,7.10
2018-04-26T01:37:37.947Z,7.10
2018-04-26T01:40:06.124Z,7.10
2018-04-26T01:42:34.276Z,7.10
2018-04-26T01:45:02.448Z,7.00
2018-04-26T01:47:30.595Z,7.00
2018-04-26T01:49:58.768Z,7.00
2018-04-26T01:52:26.916Z,6.90
2018-04-26T01:54:55.090Z,6.90
2018-04-26T01:57:24.006Z,6.90
2018-04-26T01:59:52.183Z,6.80
2018-04-26T02:02:20.331Z,6.80
2018-04-26T02:04:48.495Z,6.80
2018-04-26T02:07:16.650Z,6.80
2018-04-26T02:09:44.828Z,6.80
2018-04-26T02:12:12.983Z,6.80
2018-04-26T02:14:41.163Z,6.80
2018-04-26T02:17:09.313Z,6.80
2018-04-26T02:19:37.488Z,6.70
2018-04-26T02:22:05.642Z,6.60
2018-04-26T02:24:33.820Z,6.60
2018-04-26T02:27:01.975Z,6.50
2018-04-26T02:29:30.149Z,6.50
2018-04-26T02:31:58.306Z,6.50
2018-04-26T02:34:26.477Z,6.40
2018-04-26T02:36:54.619Z,6.40
2018-04-26T02:39:22.792Z,6.40
2018-04-26T02:41:50.939Z,6.30
2018-04-26T02:44:19.111Z,6.30
2018-04-26T02:46:47.259Z,6.30
2018-04-26T02:49:15.437Z,6.30
2018-04-26T02:51:44.355Z,6.20
2018-04-26T02:54:12.539Z,6.20
2018-04-26T02:56:40.688Z,6.20
2018-04-26T02:59:08.866Z,6.20
2018-04-26T03:01:37.016Z,6.20
2018-04-26T03:04:05.194Z,6.20
2018-04-26T03:06:33.350Z,6.20
2018-04-26T03:09:01.529Z,6.30
2018-04-26T03:11:29.677Z,6.20
2018-04-26T03:13:57.851Z,6.20
2018-04-26T03:16:25.997Z,6.20
2018-04-26T03:18:54.173Z,6.10
2018-04-26T03:21:22.321Z,6.10
2018-04-26T03:23:50.495Z,6.10
2018-04-26T03:26:18.637Z,6.10
2018-04-26T03:28:46.819Z,6.10
2018-04-26T03:31:15.043Z,6.10
2018-04-26T03:33:43.167Z,6.10
2018-04-26T03:36:11.312Z,6.10
2018-04-26T03:38:39.488Z,6.10
2018-04-26T03:41:07.639Z,6.10
2018-04-26T03:43:35.812Z,6.00
2018-04-26T03:46:03.958Z,6.00
2018-04-26T03:48:32.137Z,6.00
2018-04-26T03:51:00.287Z,5.90
2018-04-26T03:53:28.461Z,5.90
2018-04-26T03:55:56.622Z,5.90
2018-04-26T03:58:24.801Z,5.90
2018-04-26T04:01:04.644Z,6.00
2018-04-26T04:03:44.585Z,5.90
2018-04-26T04:06:14.532Z,6.00
2018-04-26T04:08:43.472Z,6.10
2018-04-26T04:11:11.626Z,6.10
2018-04-26T04:13:39.806Z,6.10
2018-04-26T04:16:07.961Z,6.30
2018-04-26T04:18:36.137Z,6.30
2018-04-26T04:21:04.285Z,6.50
2018-04-26T04:23:32.462Z,6.60
2018-04-26T04:26:00.619Z,6.70
2018-04-26T04:28:28.793Z,6.80
2018-04-26T04:30:57.000Z,6.80
2018-04-26T04:33:25.153Z,6.90
2018-04-26T04:35:53.291Z,6.90
2018-04-26T04:38:21.478Z,7.00
2018-04-26T04:40:49.628Z,7.00
2018-04-26T04:43:17.804Z,7.00
2018-04-26T04:45:45.957Z,7.00
2018-04-26T04:48:14.133Z,7.00
2018-04-26T04:50:42.289Z,7.10
2018-04-26T04:53:10.465Z,7.10
2018-04-26T04:55:38.607Z,7.10
2018-04-26T04:58:06.779Z,7.10
2018-04-26T05:00:34.924Z,7.10
2018-04-26T05:03:03.097Z,7.10
2018-04-26T05:05:32.012Z,7.20
2018-04-26T05:08:00.185Z,7.10
2018-04-26T05:10:28.330Z,7.20
2018-04-26T05:12:56.542Z,7.20
2018-04-26T05:15:24.689Z,7.20
2018-04-26T05:17:52.837Z,7.20
2018-04-26T05:20:21.010Z,7.30
2018-04-26T05:22:49.162Z,7.30
2018-04-26T05:25:17.391Z,7.40
2018-04-26T05:27:45.543Z,7.40
2018-04-26T05:30:13.716Z,7.50
2018-04-26T05:32:41.864Z,7.60
2018-04-26T05:35:10.043Z,7.70
2018-04-26T05:37:38.206Z,7.70
2018-04-26T05:40:06.379Z,7.80
2018-04-26T05:42:34.523Z,7.80
2018-04-26T05:45:02.709Z,7.80
2018-04-26T05:47:30.880Z,7.80
2018-04-26T05:49:59.037Z,7.90
2018-04-26T05:52:27.218Z,7.90
2018-04-26T05:54:55.368Z,7.90
2018-04-26T05:57:23.540Z,7.90
2018-04-26T05:59:51.763Z,7.90
2018-04-26T06:02:19.946Z,7.90
2018-04-26T06:04:48.141Z,7.90
2018-04-26T06:07:16.307Z,7.90
2018-04-26T06:09:44.455Z,7.90
2018-04-26T06:12:12.629Z,7.80
2018-04-26T06:14:41.548Z,7.80
2018-04-26T06:17:09.754Z,7.80
2018-04-26T06:19:37.915Z,7.80
2018-04-26T06:22:06.109Z,7.80
2018-04-26T06:24:34.261Z,7.80
2018-04-26T06:27:02.436Z,7.90
2018-04-26T06:29:30.593Z,8.00
2018-04-26T06:31:58.765Z,8.10
2018-04-26T06:34:26.926Z,8.20
2018-04-26T06:36:55.139Z,8.40
2018-04-26T06:39:23.280Z,8.50
2018-04-26T06:41:51.454Z,8.60
2018-04-26T06:44:19.601Z,8.70
2018-04-26T06:46:47.801Z,8.80
2018-04-26T06:49:15.972Z,8.90
2018-04-26T06:51:44.148Z,9.00
2018-04-26T06:54:12.627Z,9.00
2018-04-26T06:56:40.832Z,9.10
2018-04-26T06:59:10.092Z,9.10
2018-04-26T07:01:38.301Z,9.10
2018-04-26T07:04:06.463Z,9.10
2018-04-26T07:06:34.705Z,9.00
2018-04-26T07:09:03.404Z,9.00
2018-04-26T07:11:31.625Z,9.00
2018-04-26T07:13:59.793Z,8.90
2018-04-26T07:16:27.957Z,8.90
2018-04-26T07:18:56.106Z,8.90
2018-04-26T07:21:25.048Z,8.80
2018-04-26T07:23:53.213Z,8.80
2018-04-26T07:26:21.388Z,8.80
2018-04-26T07:28:49.609Z,8.80
2018-04-26T07:31:18.569Z,8.80
2018-04-26T07:33:47.310Z,8.70
2018-04-26T07:36:15.876Z,8.70
2018-04-26T07:38:44.158Z,8.70
2018-04-26T07:41:12.815Z,8.70
2018-04-26T07:43:41.423Z,8.60
2018-04-26T07:46:09.643Z,8.60
2018-04-26T07:48:37.828Z,8.60
2018-04-26T07:51:05.976Z,8.60
2018-04-26T07:53:34.164Z,8.60
2018-04-26T07:56:02.365Z,8.50
2018-04-26T07:58:30.545Z,8.50
2018-04-26T08:00:58.698Z,8.50
2018-04-26T08:03:26.951Z,8.50
2018-04-26T08:05:55.135Z,8.50
2018-04-26T08:08:23.309Z,8.60
2018-04-26T08:10:51.452Z,8.70
2018-04-26T08:13:19.627Z,8.80
2018-04-26T08:15:47.789Z,9.00
2018-04-26T08:18:15.972Z,9.20
2018-04-26T08:20:44.120Z,9.40
2018-04-26T08:23:13.166Z,9.50
2018-04-26T08:25:41.589Z,9.60
2018-04-26T08:28:09.850Z,9.70
2018-04-26T08:30:38.016Z,9.70
2018-04-26T08:33:06.219Z,9.60
2018-04-26T08:35:35.344Z,9.50
2018-04-26T08:38:03.714Z,9.50
2018-04-26T08:40:31.859Z,9.40
2018-04-26T08:43:00.032Z,9.40
2018-04-26T08:45:28.215Z,9.40
2018-04-26T08:47:56.384Z,9.30
2018-04-26T08:50:24.541Z,9.30
2018-04-26T08:52:52.684Z,9.30
2018-04-26T08:55:20.935Z,9.40
2018-04-26T08:57:49.116Z,9.40
2018-04-26T09:00:17.394Z,9.60
2018-04-26T09:02:45.594Z,9.70
2018-04-26T09:05:13.770Z,9.90
2018-04-26T09:07:41.946Z,10.10
2018-04-26T09:10:10.115Z,10.30
2018-04-26T09:12:38.278Z,10.50
2018-04-26T09:15:06.463Z,10.70
2018-04-26T09:17:34.626Z,10.90
2018-04-26T09:20:02.805Z,11.00
2018-04-26T09:22:30.956Z,11.20
2018-04-26T09:24:59.154Z,11.30
2018-04-26T09:27:27.313Z,11.60
2018-04-26T09:29:55.489Z,11.70
2018-04-26T09:32:23.643Z,11.80
2018-04-26T09:34:51.832Z,11.90
2018-04-26T09:37:19.993Z,12.00
2018-04-26T09:39:48.181Z,12.00
2018-04-26T09:42:16.331Z,11.90
2018-04-26T09:44:44.503Z,11.90
2018-04-26T09:47:12.685Z,11.90
2018-04-26T09:49:41.604Z,12.00
2018-04-26T09:52:09.781Z,12.00
2018-04-26T09:54:37.943Z,11.90
2018-04-26T09:57:06.123Z,12.00
2018-04-26T09:59:34.277Z,12.00
2018-04-26T10:02:02.445Z,12.10
2018-04-26T10:04:36.175Z,12.20
2018-04-26T10:07:04.349Z,12.20
2018-04-26T10:09:32.501Z,12.30
2018-04-26T10:12:00.679Z,12.30
2018-04-26T10:14:28.831Z,12.40
2018-04-26T10:16:57.846Z,12.40
2018-04-26T10:19:25.943Z,12.30
2018-04-26T10:21:54.120Z,12.30
2018-04-26T10:24:22.272Z,12.40
2018-04-26T10:26:50.453Z,12.50
2018-04-26T10:29:18.630Z,12.60
2018-04-26T10:31:46.824Z,12.60
2018-04-26T10:34:15.019Z,12.40
2018-04-26T10:36:43.232Z,12.30
2018-04-26T10:39:11.403Z,12.30
2018-04-26T10:41:39.613Z,12.30
2018-04-26T10:44:07.778Z,12.50
2018-04-26T10:46:35.963Z,12.70
2018-04-26T10:49:04.117Z,12.80
2018-04-26T10:51:32.302Z,12.80
2018-04-26T10:54:00.453Z,12.80
2018-04-26T10:56:28.656Z,12.70
2018-04-26T10:58:56.812Z,12.70
2018-04-26T11:01:25.045Z,12.70
2018-04-26T11:03:53.204Z,12.70
2018-04-26T11:06:21.383Z,12.80
2018-04-26T11:08:49.533Z,12.90
2018-04-26T11:11:17.741Z,13.10
2018-04-26T11:13:45.883Z,13.20
2018-04-26T11:16:14.063Z,13.20
2018-04-26T11:18:42.213Z,13.20
2018-04-26T11:21:10.387Z,13.10
2018-04-26T11:23:38.585Z,13.00
2018-04-26T11:26:06.736Z,13.00
2018-04-26T11:28:34.912Z,12.90
2018-04-26T11:31:03.127Z,12.90
2018-04-26T11:33:31.271Z,12.70
2018-04-26T11:35:59.515Z,12.50
2018-04-26T11:38:28.523Z,11.90
2018-04-26T11:40:56.697Z,11.90
2018-04-26T11:43:24.888Z,11.70
2018-04-26T11:45:53.094Z,11.60
2018-04-26T11:48:21.280Z,11.40
2018-04-26T11:50:49.440Z,11.40
2018-04-26T11:53:17.616Z,11.30
2018-04-26T11:55:45.769Z,11.30
2018-04-26T11:58:13.954Z,11.30
2018-04-26T12:00:42.111Z,11.20
2018-04-26T12:03:10.293Z,11.10
2018-04-26T12:05:38.462Z,10.90
2018-04-26T12:08:06.643Z,10.70
2018-04-26T12:10:34.811Z,10.60
2018-04-26T12:13:02.988Z,10.60
2018-04-26T12:15:31.153Z,10.70
2018-04-26T12:17:59.352Z,10.70
2018-04-26T12:20:27.525Z,10.80
2018-04-26T12:22:55.739Z,10.90
2018-04-26T12:25:23.931Z,11.00
2018-04-26T12:27:52.121Z,11.20
2018-04-26T12:30:20.273Z,11.40
2018-04-26T12:32:48.449Z,11.60
2018-04-26T12:35:16.687Z,11.80
2018-04-26T12:37:44.891Z,11.90
2018-04-26T12:40:13.044Z,12.00
2018-04-26T12:42:41.248Z,12.10
2018-04-26T12:45:09.415Z,12.20
2018-04-26T12:47:37.633Z,12.20
2018-04-26T12:50:05.887Z,12.20
2018-04-26T12:52:34.089Z,12.20
2018-04-26T12:55:02.249Z,12.20
2018-04-26T12:57:30.458Z,12.20
2018-04-26T12:59:59.397Z,11.90
2018-04-26T13:02:27.584Z,11.90
2018-04-26T13:04:55.912Z,11.80
2018-04-26T13:07:24.114Z,11.70
2018-04-26T13:09:52.376Z,11.70
2018-04-26T13:12:20.582Z,11.70
2018-04-26T13:14:48.753Z,11.70
2018-04-26T13:17:17.029Z,11.80
2018-04-26T13:19:45.160Z,11.90
2018-04-26T13:22:13.374Z,12.10
2018-04-26T13:24:41.741Z,12.20
2018-04-26T13:27:10.073Z,12.40
2018-04-26T13:29:38.283Z,12.50
2018-04-26T13:32:06.454Z,12.50
2018-04-26T13:34:34.974Z,12.60
2018-04-26T13:37:03.155Z,12.60
2018-04-26T13:39:31.364Z,12.70
2018-04-26T13:42:00.296Z,12.80
2018-04-26T13:44:28.569Z,12.80
2018-04-26T13:46:56.731Z,12.90
2018-04-26T13:49:25.014Z,12.90
2018-04-26T13:51:53.263Z,12.90
2018-04-26T13:54:21.468Z,12.80
2018-04-26T13:56:49.662Z,12.80
2018-04-26T13:59:17.867Z,12.80
2018-04-26T14:01:46.056Z,12.90
2018-04-26T14:04:14.237Z,13.00
2018-04-26T14:06:43.212Z,13.30
2018-04-26T14:09:11.414Z,13.30
2018-04-26T14:11:39.585Z,13.40
2018-04-26T14:14:07.771Z,13.40
2018-04-26T14:16:35.951Z,13.50
2018-04-26T14:19:04.147Z,13.60
2018-04-26T14:21:32.318Z,13.60
2018-04-26T14:24:00.530Z,13.80
2018-04-26T14:26:28.740Z,13.90
2018-04-26T14:28:56.933Z,14.00
2018-04-26T14:31:25.088Z,13.90
2018-04-26T14:33:53.360Z,13.80
2018-04-26T14:36:21.515Z,13.90
2018-04-26T14:38:49.719Z,13.80
2018-04-26T14:41:17.876Z,13.80
2018-04-26T14:43:46.053Z,13.90
2018-04-26T14:46:14.213Z,14.00
2018-04-26T14:48:43.164Z,13.90
2018-04-26T14:51:11.325Z,13.90
2018-04-26T14:53:39.572Z,13.90
2018-04-26T14:56:07.873Z,13.90
2018-04-26T14:58:36.073Z,14.00
2018-04-26T15:01:04.323Z,13.90
2018-04-26T15:03:32.555Z,13.70
2018-04-26T15:06:01.612Z,13.40
2018-04-26T15:08:29.876Z,13.40
2018-04-26T15:10:58.128Z,13.30
2018-04-26T15:13:29.417Z,13.20
2018-04-26T15:18:32.937Z,12.70
2018-04-26T15:21:01.123Z,12.70
2018-04-26T15:23:29.568Z,12.70
2018-04-26T15:25:57.798Z,12.60
2018-04-26T15:28:26.737Z,12.50
2018-04-26T15:30:54.920Z,12.50
2018-04-26T15:33:23.144Z,12.60
2018-04-26T15:35:51.340Z,12.60
2018-04-26T15:38:19.520Z,12.70
2018-04-26T15:40:47.696Z,12.80
2018-04-26T15:43:15.859Z,13.10
2018-04-26T15:45:44.094Z,13.30
2018-04-26T15:48:12.273Z,13.50
2018-04-26T15:50:55.344Z,13.50
2018-04-26T15:53:35.316Z,13.60
2018-04-26T15:56:15.256Z,13.60
2018-04-26T16:02:15.488Z,13.60
2018-04-26T16:04:55.266Z,13.50
2018-04-26T16:07:49.906Z,13.20
2018-04-26T16:10:29.817Z,12.90
2018-04-26T16:13:15.480Z,12.70
2018-04-26T16:16:01.134Z,12.50
2018-04-26T16:18:42.983Z,12.40
2018-04-26T16:21:28.748Z,12.30
2018-04-26T16:24:07.664Z,12.20
2018-04-26T16:26:53.461Z,12.20
2018-04-26T16:29:40.038Z,12.20
2018-04-26T16:32:25.772Z,12.10
2018-04-26T16:35:11.565Z,12.00
2018-04-26T16:37:57.244Z,11.90
2018-04-26T16:40:25.440Z,11.90
2018-04-26T16:42:54.430Z,11.70
2018-04-26T16:45:23.434Z,11.60
2018-04-26T16:47:52.433Z,11.50
2018-04-26T16:50:20.654Z,11.40
2018-04-26T16:52:48.872Z,11.30
2018-04-26T16:55:17.828Z,11.20
2018-04-26T16:57:46.002Z,11.20
2018-04-26T17:00:14.200Z,11.20
2018-04-26T17:02:42.425Z,11.30
2018-04-26T17:05:10.697Z,11.30
2018-04-26T17:07:38.923Z,11.30
2018-04-26T17:10:07.128Z,11.30
2018-04-26T17:12:35.305Z,11.30
2018-04-26T17:15:03.556Z,11.20
2018-04-26T17:17:31.717Z,11.20
2018-04-26T17:19:59.892Z,11.20
2018-04-26T17:22:28.116Z,11.10
2018-04-26T17:24:56.254Z,11.00
2018-04-26T17:27:25.184Z,11.00
2018-04-26T17:29:53.417Z,11.00
2018-04-26T17:32:21.619Z,11.00
2018-04-26T17:34:49.885Z,10.90
2018-04-26T17:37:18.008Z,10.90
2018-04-26T17:39:46.205Z,10.90
2018-04-26T17:42:14.505Z,10.80
2018-04-26T17:44:42.668Z,10.80
2018-04-26T17:47:11.612Z,10.70
2018-04-26T17:49:39.877Z,10.70
2018-04-26T17:52:08.037Z,10.60
2018-04-26T17:54:36.189Z,10.60
2018-04-26T17:57:05.149Z,10.50
2018-04-26T17:59:33.322Z,10.40
2018-04-26T18:02:01.509Z,10.40
2018-04-26T18:04:29.727Z,10.40
2018-04-26T18:06:57.985Z,10.30
2018-04-26T18:09:26.237Z,10.20
2018-04-26T18:11:54.585Z,10.20
2018-04-26T18:14:22.744Z,10.10
2018-04-26T18:16:50.945Z,10.10
2018-04-26T18:19:19.106Z,10.00
2018-04-26T18:21:47.299Z,10.00
2018-04-26T18:24:15.461Z,10.00
2018-04-26T18:26:43.642Z,9.90
2018-04-26T18:29:11.804Z,10.00
2018-04-26T18:31:39.988Z,10.00
2018-04-26T18:34:08.141Z,10.00
2018-04-26T18:36:36.320Z,9.90
2018-04-26T18:39:04.475Z,9.90
2018-04-26T18:41:32.692Z,9.90
2018-04-26T18:44:00.845Z,9.90
2018-04-26T18:46:29.025Z,9.80
2018-04-26T18:48:57.198Z,9.80
2018-04-26T18:51:25.509Z,9.80
2018-04-26T18:53:53.646Z,9.80
2018-04-26T18:56:21.788Z,9.80
2018-04-26T18:58:49.972Z,9.90
2018-04-26T19:01:18.125Z,9.80
2018-04-26T19:03:47.666Z,9.90
2018-04-26T19:06:15.847Z,9.80
2018-04-26T19:08:44.090Z,9.90
2018-04-26T19:11:12.288Z,9.90
2018-04-26T19:13:40.460Z,9.90
2018-04-26T19:16:08.604Z,9.90
2018-04-26T19:18:36.788Z,9.90
2018-04-26T19:21:05.024Z,9.80
2018-04-26T19:23:33.202Z,9.80
2018-04-26T19:26:01.356Z,9.80
2018-04-26T19:28:29.527Z,9.80
2018-04-26T19:30:57.673Z,9.80
2018-04-26T19:33:25.851Z,9.80
2018-04-26T19:35:54.001Z,9.80
2018-04-26T19:38:22.184Z,9.80
2018-04-26T19:40:50.329Z,9.80
2018-04-26T19:43:19.324Z,9.80
2018-04-26T19:45:48.283Z,9.70
2018-04-26T19:48:17.309Z,9.70
2018-04-26T19:50:46.447Z,9.60
2018-04-26T19:53:14.633Z,9.60
2018-04-26T19:55:42.925Z,9.50
2018-04-26T19:58:11.131Z,9.50
2018-04-26T20:00:40.053Z,9.40
2018-04-26T20:03:08.211Z,9.30
2018-04-26T20:05:37.196Z,9.20
2018-04-26T20:08:06.128Z,9.10
2018-04-26T20:10:34.296Z,9.00
2018-04-26T20:13:02.456Z,9.00
2018-04-26T20:15:30.641Z,8.90
2018-04-26T20:17:58.815Z,8.90
2018-04-26T20:20:26.996Z,8.80
2018-04-26T20:22:55.149Z,8.80
2018-04-26T20:25:23.319Z,8.70
2018-04-26T20:27:51.459Z,8.70
2018-04-26T20:30:19.645Z,8.60
2018-04-26T20:32:47.785Z,8.60
2018-04-26T20:35:15.961Z,8.60
2018-04-26T20:37:44.116Z,8.60
2018-04-26T20:40:16.241Z,8.50
2018-04-26T20:42:44.388Z,8.50
2018-04-26T20:45:12.564Z,8.40
2018-04-26T20:47:40.715Z,8.30
2018-04-26T20:50:08.884Z,8.30
2018-04-26T20:52:37.023Z,8.20
2018-04-26T20:55:05.200Z,8.10
2018-04-26T20:57:33.351Z,8.10
2018-04-26T21:00:01.538Z,8.10
2018-04-26T21:02:29.798Z,8.00
2018-04-26T21:04:57.902Z,8.00
2018-04-26T21:07:26.053Z,7.90
2018-04-26T21:09:54.977Z,7.80
2018-04-26T21:12:23.165Z,7.80
2018-04-26T21:14:51.331Z,7.80
2018-04-26T21:17:19.526Z,7.70
2018-04-26T21:19:47.683Z,7.70
2018-04-26T21:22:15.859Z,7.70
2018-04-26T21:24:44.008Z,7.70
2018-04-26T21:27:12.180Z,7.60
2018-04-26T21:29:40.324Z,7.60
2018-04-26T21:32:08.522Z,7.50
2018-04-26T21:34:36.668Z,7.50
2018-04-26T21:37:04.839Z,7.50
2018-04-26T21:39:32.995Z,7.50
2018-04-26T21:42:01.180Z,7.40
2018-04-26T21:44:29.333Z,7.40
2018-04-26T21:46:57.508Z,7.40
2018-04-26T21:49:25.181Z,7.30
2018-04-26T21:51:58.930Z,7.30
2018-04-26T21:54:32.796Z,7.20
2018-04-26T21:57:06.613Z,7.20
2018-04-26T21:59:40.317Z,7.20
2018-04-26T22:02:14.016Z,7.10
2018-04-26T22:04:45.880Z,7.10
2018-04-26T22:07:14.053Z,7.10
2018-04-26T22:09:42.205Z,7.10
2018-04-26T22:12:10.408Z,7.00
2018-04-26T22:14:38.557Z,7.00
2018-04-26T22:17:06.729Z,7.00
2018-04-26T22:19:34.880Z,7.00
2018-04-26T22:22:03.048Z,6.90
2018-04-26T22:24:31.197Z,6.90
2018-04-26T22:26:59.368Z,6.90
2018-04-26T22:29:27.518Z,6.90
2018-04-26T22:31:55.698Z,6.80
2018-04-26T22:34:23.845Z,6.80
2018-04-26T22:36:51.988Z,6.80
2018-04-26T22:39:20.160Z,6.70
2018-04-26T22:41:48.312Z,6.70
2018-04-26T22:44:16.488Z,6.70
2018-04-26T22:46:44.633Z,6.70
2018-04-26T22:49:12.804Z,6.70
2018-04-26T22:51:40.953Z,6.70
2018-04-26T22:54:09.120Z,6.70
2018-04-26T22:56:37.269Z,6.70
2018-04-26T22:59:05.455Z,6.70
2018-04-26T23:01:33.618Z,6.70
2018-04-26T23:04:01.792Z,6.70
2018-04-26T23:06:29.937Z,6.70
2018-04-26T23:08:58.114Z,6.70
2018-04-26T23:11:27.024Z,6.80
2018-04-26T23:13:55.192Z,6.70
2018-04-26T23:16:23.336Z,6.80
2018-04-26T23:18:51.509Z,6.80
2018-04-26T23:21:19.652Z,6.70
2018-04-26T23:23:47.824Z,6.70
2018-04-26T23:26:15.972Z,6.70
2018-04-26T23:28:44.139Z,6.60
2018-04-26T23:31:12.288Z,6.60
2018-04-26T23:33:41.220Z,6.50
2018-04-26T23:36:09.371Z,6.50
2018-04-26T23:38:37.547Z,6.50
2018-04-26T23:41:05.697Z,6.50
2018-04-26T23:43:33.885Z,6.40
2018-04-26T23:46:02.037Z,6.40
2018-04-26T23:48:30.233Z,6.40
2018-04-26T23:50:58.388Z,6.40
2018-04-26T23:53:26.552Z,6.30
2018-04-26T23:55:54.695Z,6.30
2018-04-26T23:58:22.864Z,6.30
